LOWS/SZG METAR and TAF weather

Enter ICAO airport designator
Station Type Date Time Source
LOWS METAR 2020/07/07 09:20 UTC NOAA

LOWS 070920Z VRB02KT 9999 FEW045 17/07 Q1022 NOSIG


Station Type Date Time Source
LOWS Decoded METAR 2020/07/07 09:20 UTC NOAA

Salzburg-Flughafen, Austria (LOWS) 47-48N 013-00E 450M
Jul 07, 2020 - 05:20 AM EDT / 2020.07.07 0920 UTC
Wind: Variable at 2 MPH (2 KT):0
Visibility: greater than 7 mile(s):0
Sky conditions: mostly clear
Temperature: 62 F (17 C)
Dew Point: 44 F (7 C)
Relative Humidity: 51%
Pressure (altimeter): 30.18 in. Hg (1022 hPa)
ob: LOWS 070920Z VRB02KT 9999 FEW045 17/07 Q1022 NOSIG
cycle: 9

Station Type Date Time Source
LOWS TAF 2020/07/07 06:21 UTC NOAA

TAF LOWS 070515Z 0706/0806 28005KT 9999 FEW050 BKN070 TX19/0716Z TN11/0803Z
BECMG 0707/0709 34009KT
BECMG 0716/0718 15006KT CAVOK

Example: see airport list